createdAt,value
2023-03-02T00:02:32.549Z,96.80
2023-03-02T00:05:35.720Z,96.90
2023-03-02T00:08:40.150Z,96.70
2023-03-02T00:11:42.286Z,96.60
2023-03-02T00:14:44.229Z,96.90
2023-03-02T00:17:46.138Z,97.00
2023-03-02T00:20:48.065Z,97.00
2023-03-02T00:23:50.102Z,97.00
2023-03-02T00:26:51.843Z,97.10
2023-03-02T00:29:53.588Z,97.00
2023-03-02T00:32:55.413Z,97.20
2023-03-02T00:35:57.190Z,97.20
2023-03-02T00:38:59.411Z,97.30
2023-03-02T00:42:01.199Z,97.40
2023-03-02T00:45:05.856Z,97.30
2023-03-02T00:48:07.718Z,97.10
2023-03-02T00:51:10.028Z,97.30
2023-03-02T00:54:11.801Z,97.20
2023-03-02T00:57:13.629Z,97.10
2023-03-02T01:00:16.112Z,97.00
2023-03-02T01:03:17.929Z,96.90
2023-03-02T01:06:21.569Z,96.80
2023-03-02T01:09:24.007Z,96.60
2023-03-02T01:12:25.802Z,96.70
2023-03-02T01:15:27.494Z,96.70
2023-03-02T01:18:29.358Z,96.90
2023-03-02T01:21:31.117Z,97.20
2023-03-02T01:24:33.733Z,97.10
2023-03-02T01:27:35.555Z,97.20
2023-03-02T01:30:37.359Z,97.20
2023-03-02T01:33:39.084Z,97.10
2023-03-02T01:36:40.884Z,97.00
2023-03-02T01:39:42.625Z,96.90
2023-03-02T01:42:52.418Z,96.80
2023-03-02T01:46:05.774Z,96.40
2023-03-02T01:49:13.381Z,96.30
2023-03-02T01:52:16.439Z,96.50
2023-03-02T01:55:25.158Z,96.90
2023-03-02T01:58:28.339Z,96.70
2023-03-02T02:01:32.322Z,97.40
2023-03-02T02:04:37.739Z,97.10
2023-03-02T02:07:40.513Z,97.10
2023-03-02T02:10:42.384Z,97.20
2023-03-02T02:13:44.826Z,97.50
2023-03-02T02:16:47.294Z,97.70
2023-03-02T02:19:56.078Z,97.80
2023-03-02T02:23:06.312Z,97.50
2023-03-02T02:26:18.697Z,97.20
2023-03-02T02:29:33.087Z,97.50
2023-03-02T02:32:38.990Z,97.00
2023-03-02T02:35:41.504Z,97.40
2023-03-02T02:38:47.964Z,97.50
2023-03-02T02:41:51.876Z,97.30
2023-03-02T02:44:58.030Z,97.50
2023-03-02T02:47:59.964Z,97.50
2023-03-02T02:51:03.132Z,97.90
2023-03-02T02:54:04.995Z,98.00
2023-03-02T02:57:07.549Z,97.90
2023-03-02T03:00:19.227Z,98.00
2023-03-02T03:03:33.561Z,97.50
2023-03-02T03:06:42.229Z,97.40
2023-03-02T03:09:45.769Z,97.90
2023-03-02T03:12:47.905Z,98.00
2023-03-02T03:15:49.830Z,97.90
2023-03-02T03:18:52.418Z,97.80
2023-03-02T03:21:56.727Z,97.70
2023-03-02T03:24:58.983Z,97.40
2023-03-02T03:28:00.956Z,97.50
2023-03-02T03:31:03.012Z,97.40
2023-03-02T03:34:05.510Z,97.30
2023-03-02T03:37:14.034Z,97.20
2023-03-02T03:40:15.970Z,97.00
2023-03-02T03:43:17.843Z,97.30
2023-03-02T03:46:19.729Z,97.40
2023-03-02T03:49:21.616Z,97.40
2023-03-02T03:52:30.574Z,97.30
2023-03-02T03:55:32.613Z,97.30
2023-03-02T03:58:34.463Z,97.30
2023-03-02T04:01:49.111Z,97.30
2023-03-02T04:04:51.618Z,96.70
2023-03-02T04:07:53.459Z,97.20
2023-03-02T04:10:55.459Z,97.10
2023-03-02T04:13:57.936Z,97.10
2023-03-02T04:16:59.828Z,97.00
2023-03-02T04:20:01.729Z,97.00
2023-03-02T04:23:03.998Z,97.00
2023-03-02T04:26:06.240Z,97.10
2023-03-02T04:29:08.697Z,97.10
2023-03-02T04:32:11.335Z,97.10
2023-03-02T04:35:14.450Z,97.10
2023-03-02T04:38:16.290Z,97.20
2023-03-02T04:41:19.473Z,97.30
2023-03-02T04:44:21.961Z,97.40
2023-03-02T04:47:23.776Z,97.40
2023-03-02T04:50:26.025Z,97.50
2023-03-02T04:53:27.788Z,97.40
2023-03-02T04:56:30.040Z,97.50
2023-03-02T04:59:31.951Z,97.70
2023-03-02T05:02:33.968Z,97.70
2023-03-02T05:05:36.108Z,97.80
2023-03-02T05:08:38.748Z,97.90
2023-03-02T05:11:40.693Z,97.90
2023-03-02T05:14:44.289Z,97.90
2023-03-02T05:17:47.246Z,98.00
2023-03-02T05:20:50.521Z,97.80
2023-03-02T05:23:53.430Z,97.80
2023-03-02T05:26:55.359Z,97.70
2023-03-02T05:29:57.290Z,97.60
2023-03-02T05:32:59.544Z,97.50
2023-03-02T05:36:01.524Z,97.40
2023-03-02T05:39:04.490Z,97.40
2023-03-02T05:42:06.672Z,97.30
2023-03-02T05:45:23.408Z,97.40
2023-03-02T05:48:25.243Z,97.00
2023-03-02T05:51:27.860Z,97.40
2023-03-02T05:54:30.285Z,97.30
2023-03-02T05:57:32.127Z,97.30
2023-03-02T06:00:34.096Z,97.40
2023-03-02T06:03:35.954Z,97.50
2023-03-02T06:06:38.214Z,97.40
2023-03-02T06:09:40.860Z,97.50
2023-03-02T06:12:42.979Z,97.60
2023-03-02T06:15:44.838Z,97.70
2023-03-02T06:18:46.911Z,97.80
2023-03-02T06:21:48.843Z,97.70
2023-03-02T06:24:50.688Z,97.90
2023-03-02T06:27:53.836Z,97.90
2023-03-02T06:30:55.910Z,97.90
2023-03-02T06:33:58.073Z,98.00
2023-03-02T06:36:59.960Z,98.00
2023-03-02T06:40:01.964Z,98.10
2023-03-02T06:43:04.495Z,98.30
2023-03-02T06:46:06.653Z,98.30
2023-03-02T06:49:09.958Z,98.40
2023-03-02T06:52:13.664Z,98.50
2023-03-02T06:55:15.769Z,98.60
2023-03-02T06:58:17.836Z,98.70
2023-03-02T07:01:19.970Z,98.90
2023-03-02T07:04:21.792Z,99.00
2023-03-02T07:07:23.664Z,99.20
2023-03-02T07:10:25.537Z,99.30
2023-03-02T07:13:27.289Z,99.50
2023-03-02T07:16:30.463Z,99.60
2023-03-02T07:19:32.311Z,99.70
2023-03-02T07:22:34.321Z,99.80
2023-03-02T07:25:37.083Z,99.90
2023-03-02T07:28:41.602Z,99.90
2023-03-02T07:31:44.374Z,99.90
2023-03-02T07:34:46.154Z,99.90
2023-03-02T07:37:47.939Z,99.90
2023-03-02T07:40:50.126Z,99.90
2023-03-02T07:43:51.901Z,99.90
2023-03-02T07:46:54.016Z,99.90
2023-03-02T07:49:55.808Z,99.90
2023-03-02T07:52:59.683Z,99.90
2023-03-02T07:56:10.003Z,99.90
2023-03-02T07:59:12.606Z,99.90
2023-03-02T08:02:16.240Z,99.90
2023-03-02T08:05:18.115Z,99.90
2023-03-02T08:08:20.121Z,99.90
2023-03-02T08:11:21.964Z,99.90
2023-03-02T08:14:24.261Z,99.90
2023-03-02T08:17:26.076Z,99.90
2023-03-02T08:20:28.013Z,99.90
2023-03-02T08:23:30.112Z,99.90
2023-03-02T08:26:32.044Z,99.90
2023-03-02T08:29:33.930Z,99.90
2023-03-02T08:32:35.712Z,99.90
2023-03-02T08:35:37.532Z,99.90
2023-03-02T08:38:39.504Z,99.90
2023-03-02T08:41:41.553Z,99.90
2023-03-02T08:44:43.403Z,99.90
2023-03-02T08:47:45.463Z,99.90
2023-03-02T08:50:56.318Z,99.90
2023-03-02T08:53:58.380Z,99.20
2023-03-02T08:57:01.320Z,99.90
2023-03-02T09:00:09.314Z,99.90
2023-03-02T09:03:11.169Z,99.90
2023-03-02T09:06:13.870Z,99.90
2023-03-02T09:09:15.667Z,99.90
2023-03-02T09:12:17.435Z,99.90
2023-03-02T09:15:19.261Z,99.90
2023-03-02T09:18:21.031Z,99.90
2023-03-02T09:21:23.473Z,99.90
2023-03-02T09:24:25.232Z,99.90
2023-03-02T09:27:27.025Z,99.90
2023-03-02T09:30:29.069Z,99.90
2023-03-02T09:33:31.284Z,99.90
2023-03-02T09:36:34.557Z,99.90
2023-03-02T09:39:38.189Z,99.90
2023-03-02T09:43:08.860Z,99.90
2023-03-02T09:46:48.875Z,98.80
2023-03-02T09:49:56.260Z,98.60
2023-03-02T09:53:18.263Z,98.60
2023-03-02T09:56:21.222Z,96.90
2023-03-02T09:59:43.626Z,99.10
2023-03-02T10:02:58.742Z,96.30
2023-03-02T10:06:04.466Z,96.70
2023-03-02T10:09:06.244Z,98.50
2023-03-02T10:12:23.163Z,98.60
2023-03-02T10:15:42.046Z,95.60
2023-03-02T10:18:45.766Z,95.10
2023-03-02T10:21:52.048Z,98.10
2023-03-02T10:25:14.229Z,97.10
2023-03-02T10:28:19.135Z,96.00
2023-03-02T10:31:30.712Z,97.80
2023-03-02T10:34:35.732Z,95.20
2023-03-02T10:37:37.492Z,97.40
2023-03-02T10:40:41.408Z,97.60
2023-03-02T10:43:47.055Z,97.10
2023-03-02T10:46:48.842Z,95.60
2023-03-02T10:49:51.688Z,97.00
2023-03-02T10:53:02.541Z,96.60
2023-03-02T10:56:06.165Z,97.10
2023-03-02T10:59:27.065Z,97.20
2023-03-02T11:02:29.644Z,94.30
2023-03-02T11:05:44.458Z,97.20
2023-03-02T11:08:46.625Z,95.30
2023-03-02T11:11:56.605Z,97.60
2023-03-02T11:15:08.838Z,95.80
2023-03-02T11:18:22.684Z,96.30
2023-03-02T11:21:35.867Z,94.90
2023-03-02T11:24:44.914Z,95.60
2023-03-02T11:27:48.504Z,96.20
2023-03-02T11:30:53.753Z,97.40
2023-03-02T11:34:07.866Z,96.40
2023-03-02T11:37:19.816Z,97.60
2023-03-02T11:40:33.003Z,97.60
2023-03-02T11:43:34.796Z,96.00
2023-03-02T11:46:36.627Z,97.90
2023-03-02T11:49:43.963Z,97.70
2023-03-02T11:52:54.702Z,96.80
2023-03-02T11:55:56.482Z,95.70
2023-03-02T11:59:01.327Z,97.80
2023-03-02T12:02:03.708Z,97.10
2023-03-02T12:05:23.029Z,97.80
2023-03-02T12:08:24.806Z,96.90
2023-03-02T12:11:38.458Z,97.80
2023-03-02T12:14:41.609Z,95.80
2023-03-02T12:17:43.383Z,97.50
2023-03-02T12:20:45.206Z,98.10
2023-03-02T12:23:49.925Z,97.70
2023-03-02T12:27:06.092Z,96.80
2023-03-02T12:30:17.021Z,95.60
2023-03-02T12:33:21.145Z,95.90
2023-03-02T12:36:31.992Z,97.00
2023-03-02T12:39:43.247Z,96.30
2023-03-02T12:43:29.013Z,96.20
2023-03-02T12:46:34.783Z,94.50
2023-03-02T12:49:53.884Z,97.90
2023-03-02T12:53:00.690Z,95.00
2023-03-02T12:56:02.530Z,96.50
2023-03-02T12:59:04.353Z,97.80
2023-03-02T13:02:14.113Z,97.50
2023-03-02T13:05:28.387Z,95.30
2023-03-02T13:08:31.785Z,95.40
2023-03-02T13:11:36.071Z,96.50
2023-03-02T13:14:42.514Z,96.20
2023-03-02T13:17:52.450Z,95.30
2023-03-02T13:20:55.554Z,95.90
2023-03-02T13:23:57.378Z,96.10
2023-03-02T13:27:05.508Z,96.10
2023-03-02T13:30:35.190Z,95.10
2023-03-02T13:33:44.969Z,92.90
2023-03-02T13:36:46.941Z,94.30
2023-03-02T13:39:57.003Z,96.30
2023-03-02T13:42:58.911Z,94.70
2023-03-02T13:46:20.932Z,96.60
2023-03-02T13:49:36.176Z,93.80
2023-03-02T13:52:37.987Z,93.80
2023-03-02T13:55:40.226Z,96.60
2023-03-02T13:58:42.193Z,96.10
2023-03-02T14:01:44.258Z,96.10
2023-03-02T14:04:46.081Z,95.80
2023-03-02T14:07:48.507Z,95.60
2023-03-02T14:10:53.875Z,95.30
2023-03-02T14:13:55.720Z,94.50
2023-03-02T14:16:57.751Z,95.10
2023-03-02T14:19:59.551Z,95.00
2023-03-02T14:23:06.950Z,95.10
2023-03-02T14:26:32.827Z,94.70
2023-03-02T14:29:37.975Z,92.60
2023-03-02T14:32:39.889Z,95.20
2023-03-02T14:35:42.721Z,95.30
2023-03-02T14:38:44.911Z,94.80
2023-03-02T14:41:53.415Z,94.90
2023-03-02T14:44:56.058Z,94.90
2023-03-02T14:47:57.960Z,94.80
2023-03-02T14:51:04.048Z,94.80
2023-03-02T14:54:12.857Z,94.20
2023-03-02T14:57:20.859Z,94.00
2023-03-02T15:00:23.059Z,93.30
2023-03-02T15:03:26.739Z,94.60
2023-03-02T15:06:35.178Z,95.20
2023-03-02T15:09:37.099Z,93.60
2023-03-02T15:12:38.862Z,95.30
2023-03-02T15:15:44.731Z,95.10
2023-03-02T15:18:49.879Z,93.70
2023-03-02T15:21:52.915Z,94.00
2023-03-02T15:24:55.128Z,95.20
2023-03-02T15:27:59.944Z,95.40
2023-03-02T15:31:14.371Z,95.10
2023-03-02T15:34:16.318Z,92.90
2023-03-02T15:37:18.478Z,95.10
2023-03-02T15:40:21.054Z,94.90
2023-03-02T15:43:24.256Z,94.20
2023-03-02T15:46:26.915Z,94.60
2023-03-02T15:49:29.528Z,94.30
2023-03-02T15:52:31.309Z,94.00
2023-03-02T15:55:33.226Z,93.80
2023-03-02T15:58:35.701Z,93.70
2023-03-02T16:01:37.560Z,92.80
2023-03-02T16:04:39.416Z,93.30
2023-03-02T16:07:41.320Z,93.20
2023-03-02T16:10:43.471Z,92.80
2023-03-02T16:13:45.317Z,92.80
2023-03-02T16:16:47.650Z,92.50
2023-03-02T16:19:49.550Z,92.30
2023-03-02T16:22:51.405Z,92.00
2023-03-02T16:25:53.240Z,91.60
2023-03-02T16:28:55.074Z,91.10
2023-03-02T16:31:57.064Z,91.00
2023-03-02T16:34:58.974Z,90.50
2023-03-02T16:38:01.111Z,90.40
2023-03-02T16:41:05.017Z,89.60
2023-03-02T16:44:07.630Z,89.10
2023-03-02T16:47:09.355Z,90.10
2023-03-02T16:50:12.216Z,90.10
2023-03-02T16:53:14.060Z,89.10
2023-03-02T16:56:16.478Z,89.10
2023-03-02T16:59:18.491Z,88.80
2023-03-02T17:02:20.332Z,88.40
2023-03-02T17:05:22.899Z,88.00
2023-03-02T17:08:25.057Z,87.50
2023-03-02T17:11:26.993Z,87.60
2023-03-02T17:14:28.878Z,87.30
2023-03-02T17:17:30.965Z,87.00
2023-03-02T17:20:32.975Z,87.00
2023-03-02T17:23:34.887Z,86.80
2023-03-02T17:26:37.040Z,86.80
2023-03-02T17:29:38.830Z,86.60
2023-03-02T17:32:40.993Z,87.70
2023-03-02T17:35:43.957Z,86.10
2023-03-02T17:38:45.904Z,86.60
2023-03-02T17:41:47.677Z,86.90
2023-03-02T17:44:49.693Z,86.70
2023-03-02T17:47:53.412Z,86.60
2023-03-02T17:50:55.136Z,85.90
2023-03-02T17:53:57.035Z,86.60
2023-03-02T17:56:58.821Z,86.50
2023-03-02T18:00:00.625Z,86.60
2023-03-02T18:03:02.874Z,86.50
2023-03-02T18:06:05.328Z,86.70
2023-03-02T18:09:07.103Z,86.20
2023-03-02T18:12:09.268Z,86.60
2023-03-02T18:15:12.455Z,86.30
2023-03-02T18:18:14.226Z,85.70
2023-03-02T18:21:16.039Z,86.50
2023-03-02T18:24:17.982Z,86.20
2023-03-02T18:27:20.293Z,86.30
2023-03-02T18:30:23.128Z,86.40
2023-03-02T18:33:25.150Z,86.30
2023-03-02T18:36:27.319Z,86.80
2023-03-02T18:39:29.564Z,86.90
2023-03-02T18:42:31.573Z,86.90
2023-03-02T18:45:33.840Z,87.10
2023-03-02T18:48:36.142Z,86.80
2023-03-02T18:51:37.949Z,86.80
2023-03-02T18:54:39.929Z,87.00
2023-03-02T18:57:42.192Z,86.70
2023-03-02T19:00:45.796Z,87.10
2023-03-02T19:03:49.097Z,86.90
2023-03-02T19:06:51.096Z,87.10
2023-03-02T19:09:52.913Z,87.00
2023-03-02T19:12:54.917Z,87.10
2023-03-02T19:15:57.187Z,87.40
2023-03-02T19:18:59.410Z,87.10
2023-03-02T19:22:02.077Z,87.60
2023-03-02T19:25:04.663Z,87.30
2023-03-02T19:28:07.039Z,87.60
2023-03-02T19:31:11.504Z,87.90
2023-03-02T19:34:13.456Z,88.30
2023-03-02T19:37:15.708Z,88.40
2023-03-02T19:40:20.134Z,88.30
2023-03-02T19:43:21.960Z,87.70
2023-03-02T19:46:24.024Z,88.40
2023-03-02T19:49:26.108Z,88.00
2023-03-02T19:52:28.109Z,88.00
2023-03-02T19:55:30.272Z,88.00
2023-03-02T19:58:33.240Z,88.10
2023-03-02T20:01:35.433Z,88.30
2023-03-02T20:04:37.238Z,88.40
2023-03-02T20:07:41.647Z,88.20
2023-03-02T20:10:46.612Z,88.00
2023-03-02T20:13:50.690Z,87.00
2023-03-02T20:16:52.831Z,88.10
2023-03-02T20:19:55.982Z,88.30
2023-03-02T20:22:58.799Z,88.40
2023-03-02T20:26:02.528Z,88.00
2023-03-02T20:29:05.332Z,88.20
2023-03-02T20:32:09.227Z,88.20
2023-03-02T20:35:13.581Z,87.90
2023-03-02T20:38:29.225Z,87.60
2023-03-02T20:41:31.421Z,87.70
2023-03-02T20:44:33.524Z,88.70
2023-03-02T20:47:35.805Z,88.70
2023-03-02T20:50:38.005Z,89.00
2023-03-02T20:53:39.845Z,89.10
2023-03-02T20:56:42.059Z,89.30
2023-03-02T20:59:45.907Z,89.20
2023-03-02T21:02:48.628Z,88.90
2023-03-02T21:05:50.479Z,89.30
2023-03-02T21:08:52.575Z,89.50
2023-03-02T21:11:54.859Z,89.70
2023-03-02T21:14:56.915Z,89.70
2023-03-02T21:17:59.342Z,89.80
2023-03-02T21:21:02.626Z,89.90
2023-03-02T21:24:04.784Z,89.60
2023-03-02T21:27:07.318Z,90.00
2023-03-02T21:30:13.051Z,90.00
2023-03-02T21:33:14.860Z,89.80
2023-03-02T21:36:23.504Z,90.00
2023-03-02T21:39:25.395Z,89.10
2023-03-02T21:42:27.355Z,90.30
2023-03-02T21:45:29.341Z,90.20
2023-03-02T21:48:31.143Z,90.30
2023-03-02T21:51:33.463Z,90.30
2023-03-02T21:54:35.196Z,90.40
2023-03-02T21:57:37.254Z,90.40
2023-03-02T22:00:39.896Z,90.40
2023-03-02T22:03:41.961Z,90.40
2023-03-02T22:06:43.817Z,90.60
2023-03-02T22:09:45.638Z,90.70
2023-03-02T22:12:49.378Z,90.70
2023-03-02T22:16:15.440Z,90.60
2023-03-02T22:19:31.505Z,90.30
2023-03-02T22:22:33.406Z,90.10
2023-03-02T22:25:35.253Z,90.90
2023-03-02T22:28:41.046Z,91.00
2023-03-02T22:31:47.467Z,91.10
2023-03-02T22:34:55.626Z,90.90
2023-03-02T22:38:06.989Z,91.00
2023-03-02T22:41:14.350Z,90.80
2023-03-02T22:44:16.140Z,90.80
2023-03-02T22:47:20.916Z,91.20
2023-03-02T22:50:29.510Z,90.80
2023-03-02T22:53:33.004Z,90.80
2023-03-02T22:56:37.090Z,91.20
2023-03-02T22:59:38.979Z,91.50
2023-03-02T23:02:46.243Z,91.60
2023-03-02T23:05:51.750Z,91.70
2023-03-02T23:08:56.679Z,91.90
2023-03-02T23:12:01.984Z,92.00
2023-03-02T23:15:17.751Z,92.10
2023-03-02T23:18:25.941Z,91.80
2023-03-02T23:21:38.477Z,92.20
2023-03-02T23:24:40.330Z,92.40
2023-03-02T23:27:42.074Z,92.80
2023-03-02T23:30:43.885Z,92.80
2023-03-02T23:33:45.927Z,92.90
2023-03-02T23:36:47.760Z,93.10
2023-03-02T23:39:49.608Z,93.10
2023-03-02T23:42:51.461Z,93.20
2023-03-02T23:45:53.369Z,93.30
2023-03-02T23:48:56.251Z,93.30
2023-03-02T23:51:58.663Z,93.20
2023-03-02T23:55:00.483Z,93.10
2023-03-02T23:58:02.511Z,93.10
